Time;durP1;ratioP1;P1;durP2;ratioP2;P2;SDS_P1;SDS_P2;PMS_P1;PMS_P2;Temp;Humidity;BMP_temperature;BMP_pressure;BME280_temperature;BME280_humidity;BME280_pressure;Samples;Min_cycle;Max_cycle;Signal;HPM_P1;HPM_P2
2022/02/19 00:01:54;;;;;;;0.00;0.00;;;;;21.90;100175.00;;;;4799792;29;20054;-80
2022/02/19 00:04:23;;;;;;;0.00;0.00;;;;;21.80;100172.00;;;;4799156;29;20039;-81
2022/02/19 00:06:52;;;;;;;0.00;0.00;;;;;21.80;100179.00;;;;4798713;29;20051;-80
2022/02/19 00:09:22;;;;;;;0.00;0.00;;;;;21.80;100189.00;;;;4799204;29;20058;-78
2022/02/19 00:11:51;;;;;;;0.00;0.00;;;;;21.60;100169.00;;;;4799429;29;20081;-80
2022/02/19 00:14:20;;;;;;;0.00;0.00;;;;;21.50;100200.00;;;;4799146;29;20050;-80
2022/02/19 00:16:51;;;;;;;0.00;0.00;;;;;21.70;100191.00;;;;4798711;29;20078;-80
2022/02/19 00:19:21;;;;;;;0.00;0.00;;;;;21.70;100203.00;;;;4799495;29;20055;-80
2022/02/19 00:21:50;;;;;;;0.00;0.00;;;;;21.60;100205.00;;;;4799162;29;20418;-81
2022/02/19 00:24:19;;;;;;;0.00;0.00;;;;;21.50;100222.00;;;;4798136;29;20506;-81
2022/02/19 00:26:49;;;;;;;0.00;0.00;;;;;21.40;100221.00;;;;4799959;29;20099;-81
2022/02/19 00:29:19;;;;;;;0.00;0.00;;;;;21.20;100226.00;;;;4798742;29;20072;-81
2022/02/19 00:31:49;;;;;;;0.00;0.00;;;;;21.20;100213.00;;;;4799409;29;20080;-81
2022/02/19 00:34:21;;;;;;;0.00;0.00;;;;;21.10;100215.00;;;;4799105;29;20047;-83
2022/02/19 00:36:51;;;;;;;0.00;0.00;;;;;20.90;100235.00;;;;4798971;29;20058;-80
2022/02/19 00:39:20;;;;;;;0.00;0.00;;;;;20.80;100218.00;;;;4813033;29;20051;-79
2022/02/19 00:41:50;;;;;;;0.00;0.00;;;;;20.60;100227.00;;;;4801149;29;20678;-79
2022/02/19 00:44:19;;;;;;;0.00;0.00;;;;;20.40;100223.00;;;;4800673;29;20047;-80
2022/02/19 00:46:49;;;;;;;0.00;0.00;;;;;20.30;100234.00;;;;4800638;29;20055;-80
2022/02/19 00:49:19;;;;;;;0.00;0.00;;;;;20.20;100234.00;;;;4816009;29;20530;-81
2022/02/19 00:51:50;;;;;;;0.00;0.00;;;;;20.20;100238.00;;;;4816367;29;20119;-80
2022/02/19 00:54:19;;;;;;;;;;;;;20.30;100235.00;;;;4816016;29;20050;-79
2022/02/19 00:56:49;;;;;;;0.00;0.00;;;;;20.20;100224.00;;;;4815725;29;19941;-80
2022/02/19 00:59:23;;;;;;;0.00;0.00;;;;;20.10;100226.00;;;;4815675;29;20150;-79
2022/02/19 01:01:53;;;;;;;0.00;0.00;;;;;20.00;100230.00;;;;4725585;29;2406983;-81
2022/02/19 01:04:26;;;;;;;0.00;0.00;;;;;20.00;100236.00;;;;4802910;29;20062;-79
2022/02/19 01:06:56;;;;;;;0.00;0.00;;;;;19.90;100220.00;;;;4800845;29;20128;-80
2022/02/19 01:09:26;;;;;;;0.00;0.00;;;;;20.00;100236.00;;;;4817072;29;20054;-79
2022/02/19 01:11:56;;;;;;;0.00;0.00;;;;;20.30;100231.00;;;;4817240;29;20055;-79
2022/02/19 01:14:29;;;;;;;0.00;0.00;;;;;20.20;100231.00;;;;4802668;29;20135;-79
2022/02/19 01:16:58;;;;;;;0.00;0.00;;;;;20.10;100251.00;;;;4802804;29;20418;-79
2022/02/19 01:19:28;;;;;;;0.00;0.00;;;;;20.10;100238.00;;;;4802317;29;20050;-79
2022/02/19 01:21:58;;;;;;;0.00;0.00;;;;;20.00;100246.00;;;;4816582;29;20127;-80
2022/02/19 01:24:28;;;;;;;;;;;;;20.10;100250.00;;;;4802910;29;20507;-80
2022/02/19 01:27:00;;;;;;;0.00;0.00;;;;;20.20;100234.00;;;;4816179;29;19933;-80
2022/02/19 01:29:31;;;;;;;0.00;0.00;;;;;20.40;100238.00;;;;4815989;29;20111;-80
2022/02/19 01:32:00;;;;;;;0.00;0.00;;;;;20.40;100225.00;;;;4815719;29;20773;-79
2022/02/19 01:34:30;;;;;;;0.00;0.00;;;;;20.30;100236.00;;;;4800902;29;20055;-80
2022/02/19 01:36:59;;;;;;;0.00;0.00;;;;;20.10;100238.00;;;;4816585;29;20423;-80
2022/02/19 01:39:31;;;;;;;0.00;0.00;;;;;20.00;100218.00;;;;4816382;29;20050;-80
2022/02/19 01:42:04;;;;;;;0.00;0.00;;;;;19.90;100218.00;;;;4816294;29;20059;-80
2022/02/19 01:44:39;;;;;;;0.00;0.00;;;;;19.80;100241.00;;;;4815322;29;20147;-80
2022/02/19 01:47:15;;;;;;;0.00;0.00;;;;;19.70;100235.00;;;;4816006;29;20051;-80
2022/02/19 01:49:46;;;;;;;0.00;0.00;;;;;19.60;100230.00;;;;4815819;29;20104;-80
2022/02/19 01:52:18;;;;;;;0.00;0.00;;;;;19.40;100226.00;;;;4800427;29;20107;-81
2022/02/19 01:54:48;;;;;;;0.00;0.00;;;;;19.20;100223.00;;;;4801995;29;20042;-79
2022/02/19 01:57:35;;;;;;;0.00;0.00;;;;;19.10;100214.00;;;;4804089;29;20059;-80
2022/02/19 02:00:17;;;;;;;0.00;0.00;;;;;18.90;100227.00;;;;4816121;29;20103;-80
2022/02/19 02:02:56;;;;;;;0.00;0.00;;;;;18.80;100223.00;;;;4816044;29;20059;-79
2022/02/19 02:05:46;;;;;;;0.00;0.00;;;;;18.80;100220.00;;;;4815680;29;20058;-79
2022/02/19 02:08:16;;;;;;;0.00;0.00;;;;;18.80;100216.00;;;;4800864;29;20489;-79
2022/02/19 02:10:47;;;;;;;0.00;0.00;;;;;18.70;100216.00;;;;4816583;29;20051;-79
2022/02/19 02:13:34;;;;;;;0.00;0.00;;;;;18.70;100206.00;;;;4824390;29;20062;-79
2022/02/19 02:16:05;;;;;;;0.00;0.00;;;;;18.70;100198.00;;;;4834032;29;20059;-80
2022/02/19 02:19:10;;;;;;;0.00;0.00;;;;;18.70;100224.00;;;;4799630;29;20149;-80
2022/02/19 02:21:56;;;;;;;0.00;0.00;;;;;18.50;100219.00;;;;4799087;29;20051;-79
2022/02/19 02:24:26;;;;;;;0.00;0.00;;;;;18.50;100194.00;;;;4802017;29;20047;-79
2022/02/19 02:26:59;;;;;;;0.00;0.00;;;;;18.40;100213.00;;;;4815556;29;20072;-80
2022/02/19 02:29:29;;;;;;;0.10;0.00;;;;;18.40;100219.00;;;;4815534;29;20139;-80
2022/02/19 02:32:01;;;;;;;0.00;0.00;;;;;18.40;100206.00;;;;4815771;29;20107;-79
2022/02/19 02:34:30;;;;;;;0.00;0.00;;;;;18.40;100216.00;;;;4815045;29;20150;-79
2022/02/19 02:37:00;;;;;;;0.00;0.00;;;;;18.40;100209.00;;;;4815613;29;20086;-80
2022/02/19 02:39:29;;;;;;;0.10;0.10;;;;;18.40;100201.00;;;;4815659;29;20059;-79
2022/02/19 02:41:59;;;;;;;0.00;0.00;;;;;18.40;100209.00;;;;4815364;29;20062;-79
2022/02/19 02:44:28;;;;;;;0.00;0.00;;;;;18.30;100216.00;;;;4800755;29;20066;-80
2022/02/19 02:46:58;;;;;;;0.00;0.00;;;;;18.30;100192.00;;;;4815368;29;20154;-81
2022/02/19 02:49:27;;;;;;;0.00;0.00;;;;;18.20;100205.00;;;;4815733;29;20059;-80
2022/02/19 02:51:57;;;;;;;0.00;0.00;;;;;18.20;100197.00;;;;4815160;29;20050;-80
2022/02/19 02:54:29;;;;;;;0.00;0.00;;;;;18.20;100208.00;;;;4801315;29;20046;-80
2022/02/19 02:56:59;;;;;;;0.00;0.00;;;;;18.20;100194.00;;;;4814838;29;20149;-79
2022/02/19 02:59:29;;;;;;;0.00;0.00;;;;;18.20;100196.00;;;;4799384;29;20719;-80
2022/02/19 03:02:00;;;;;;;0.00;0.00;;;;;18.20;100174.00;;;;4813290;29;20058;-80
2022/02/19 03:04:31;;;;;;;;;;;;;18.20;100179.00;;;;4801527;29;20062;-79
2022/02/19 03:07:00;;;;;;;0.00;0.00;;;;;18.10;100178.00;;;;4800672;29;19976;-79
2022/02/19 03:09:30;;;;;;;0.00;0.00;;;;;18.10;100185.00;;;;4800993;29;20059;-79
2022/02/19 03:12:00;;;;;;;0.00;0.00;;;;;18.10;100173.00;;;;4814723;29;20111;-79
2022/02/19 03:14:31;;;;;;;0.00;0.00;;;;;18.10;100169.00;;;;4814601;29;20059;-80
2022/02/19 03:17:01;;;;;;;0.00;0.00;;;;;18.00;100174.00;;;;4815087;29;20051;-79
2022/02/19 03:19:30;;;;;;;0.00;0.00;;;;;18.00;100147.00;;;;4814243;29;20050;-79
2022/02/19 03:22:00;;;;;;;0.90;0.90;;;;;18.00;100165.00;;;;4814839;29;20558;-79
2022/02/19 03:24:32;;;;;;;0.00;0.00;;;;;17.90;100155.00;;;;4814469;29;20456;-80
2022/02/19 03:27:05;;;;;;;0.00;0.00;;;;;17.90;100167.00;;;;4799492;29;20050;-79
2022/02/19 03:29:35;;;;;;;0.00;0.00;;;;;17.90;100153.00;;;;4800872;29;20050;-79
2022/02/19 03:32:06;;;;;;;0.00;0.00;;;;;17.80;100162.00;;;;4800552;29;20405;-80
2022/02/19 03:34:35;;;;;;;0.00;0.00;;;;;17.70;100149.00;;;;4814645;29;20249;-80
2022/02/19 03:37:05;;;;;;;0.00;0.00;;;;;17.70;100148.00;;;;4814326;29;20057;-80
2022/02/19 03:39:35;;;;;;;0.00;0.00;;;;;17.70;100167.00;;;;4814572;29;20058;-80
2022/02/19 03:42:04;;;;;;;0.00;0.00;;;;;17.60;100152.00;;;;4814358;29;20058;-81
2022/02/19 03:44:34;;;;;;;0.00;0.00;;;;;17.60;100164.00;;;;4814469;29;20565;-80
2022/02/19 03:47:12;;;;;;;0.00;0.00;;;;;17.50;100163.00;;;;4814062;29;20157;-80
2022/02/19 03:49:56;;;;;;;0.00;0.00;;;;;17.40;100143.00;;;;4798667;29;20069;-80
2022/02/19 03:52:26;;;;;;;0.00;0.00;;;;;17.40;100149.00;;;;4814421;29;20120;-80
2022/02/19 03:54:55;;;;;;;0.00;0.00;;;;;17.40;100146.00;;;;4800373;29;20059;-81
2022/02/19 03:57:25;;;;;;;0.00;0.00;;;;;17.40;100140.00;;;;4813998;29;20061;-80
2022/02/19 03:59:57;;;;;;;0.00;0.00;;;;;17.40;100137.00;;;;4813879;29;20523;-78
2022/02/19 04:02:27;;;;;;;0.00;0.00;;;;;17.40;100147.00;;;;4799739;29;20062;-80
2022/02/19 04:04:57;;;;;;;0.00;0.00;;;;;17.30;100129.00;;;;4814142;29;20112;-81
2022/02/19 04:07:27;;;;;;;0.00;0.00;;;;;17.20;100147.00;;;;4814242;29;20898;-80
2022/02/19 04:10:01;;;;;;;0.00;0.00;;;;;17.20;100151.00;;;;4813425;29;20058;-80
2022/02/19 04:12:34;;;;;;;0.00;0.00;;;;;17.20;100125.00;;;;4813902;29;20105;-80
2022/02/19 04:15:07;;;;;;;0.00;0.00;;;;;17.20;100125.00;;;;4814447;29;20177;-81
2022/02/19 04:17:41;;;;;;;0.00;0.00;;;;;17.10;100142.00;;;;4798747;29;20473;-80
2022/02/19 04:20:13;;;;;;;0.00;0.00;;;;;16.90;100135.00;;;;4813841;29;20055;-80
2022/02/19 04:22:43;;;;;;;0.00;0.00;;;;;16.90;100137.00;;;;4813398;29;20047;-80
2022/02/19 04:25:13;;;;;;;0.00;0.00;;;;;16.90;100125.00;;;;4798666;29;20055;-80
2022/02/19 04:27:43;;;;;;;0.00;0.00;;;;;16.90;100142.00;;;;4813658;29;20145;-81
2022/02/19 04:30:12;;;;;;;0.00;0.00;;;;;16.80;100139.00;;;;4813379;29;20862;-80
2022/02/19 04:32:56;;;;;;;0.00;0.00;;;;;16.80;100132.00;;;;4784789;29;20484;-80
2022/02/19 04:35:29;;;;;;;0.00;0.00;;;;;16.80;100128.00;;;;4813621;29;20534;-81
2022/02/19 04:37:59;;;;;;;0.00;0.00;;;;;16.70;100124.00;;;;4814213;29;20059;-80
2022/02/19 04:40:32;;;;;;;0.00;0.00;;;;;16.60;100128.00;;;;4798499;29;20054;-80
2022/02/19 04:43:05;;;;;;;0.00;0.00;;;;;16.60;100113.00;;;;4812900;29;20054;-79
2022/02/19 04:45:37;;;;;;;0.00;0.00;;;;;16.60;100132.00;;;;4812714;29;20119;-80
2022/02/19 04:48:09;;;;;;;0.00;0.00;;;;;16.60;100116.00;;;;4813363;29;20047;-80
2022/02/19 04:50:40;;;;;;;0.00;0.00;;;;;16.50;100105.00;;;;4813582;29;20078;-80
2022/02/19 04:53:16;;;;;;;0.00;0.00;;;;;16.50;100107.00;;;;4828018;29;20053;-78
2022/02/19 04:55:45;;;;;;;0.00;0.00;;;;;16.50;100101.00;;;;4827774;29;20051;-80
2022/02/19 04:58:18;;;;;;;0.00;0.00;;;;;16.50;100104.00;;;;4813141;29;20059;-80
2022/02/19 05:00:48;;;;;;;0.00;0.00;;;;;16.40;100118.00;;;;4813734;29;20662;-80
2022/02/19 05:03:22;;;;;;;0.00;0.00;;;;;16.40;100119.00;;;;4799022;29;20062;-80
2022/02/19 05:06:13;;;;;;;0.00;0.00;;;;;16.30;100106.00;;;;4799742;29;20081;-80
2022/02/19 05:08:57;;;;;;;0.00;0.00;;;;;16.30;100099.00;;;;4813505;29;20055;-80
2022/02/19 05:11:31;;;;;;;0.00;0.00;;;;;16.30;100112.00;;;;4813128;29;20592;-80
2022/02/19 05:14:03;;;;;;;0.00;0.00;;;;;16.30;100113.00;;;;4798245;29;20061;-80
2022/02/19 05:16:34;;;;;;;0.00;0.00;;;;;16.20;100094.00;;;;4813130;29;20111;-81
2022/02/19 05:19:08;;;;;;;0.00;0.00;;;;;16.30;100105.00;;;;4812435;29;20665;-80
2022/02/19 05:21:41;;;;;;;0.00;0.00;;;;;16.20;100101.00;;;;4813134;29;20674;-78
2022/02/19 05:24:14;;;;;;;0.00;0.00;;;;;16.20;100093.00;;;;4813323;29;20073;-80
2022/02/19 05:26:47;;;;;;;0.00;0.00;;;;;16.20;100087.00;;;;4800969;29;20099;-80
2022/02/19 05:29:22;;;;;;;0.00;0.00;;;;;16.20;100090.00;;;;4815006;29;20145;-79
2022/02/19 05:31:53;;;;;;;0.00;0.00;;;;;16.10;100095.00;;;;4813007;29;20835;-80
2022/02/19 05:34:39;;;;;;;0.00;0.00;;;;;16.20;100084.00;;;;4812432;29;20062;-80
2022/02/19 05:37:10;;;;;;;0.00;0.00;;;;;16.20;100094.00;;;;4799030;29;20078;-79
2022/02/19 05:39:49;;;;;;;0.00;0.00;;;;;16.10;100087.00;;;;4815515;29;20051;-81
2022/02/19 05:42:20;;;;;;;0.00;0.00;;;;;16.10;100082.00;;;;4817043;29;20058;-80
2022/02/19 05:45:07;;;;;;;0.00;0.00;;;;;16.10;100074.00;;;;4816250;29;20071;-79
2022/02/19 05:47:40;;;;;;;0.00;0.00;;;;;16.10;100081.00;;;;4816486;29;20057;-80
2022/02/19 05:50:32;;;;;;;0.00;0.00;;;;;16.10;100074.00;;;;4801593;29;20073;-81
2022/02/19 05:53:11;;;;;;;0.00;0.00;;;;;16.00;100090.00;;;;4816224;29;20534;-79
2022/02/19 05:55:44;;;;;;;0.00;0.00;;;;;16.00;100077.00;;;;4816294;29;20464;-81
2022/02/19 05:58:14;;;;;;;0.00;0.00;;;;;16.10;100087.00;;;;4816102;29;20408;-79
2022/02/19 06:00:55;;;;;;;0.00;0.00;;;;;16.00;100086.00;;;;4801130;29;20055;-81
2022/02/19 06:03:25;;;;;;;0.00;0.00;;;;;16.00;100074.00;;;;4801721;29;20059;-81
2022/02/19 06:05:54;;;;;;;0.00;0.00;;;;;16.00;100076.00;;;;4815422;29;20137;-80
2022/02/19 06:08:26;;;;;;;0.00;0.00;;;;;16.00;100076.00;;;;4815703;29;20664;-81
2022/02/19 06:10:56;;;;;;;0.00;0.00;;;;;15.90;100065.00;;;;4815882;29;20055;-79
2022/02/19 06:13:27;;;;;;;0.00;0.00;;;;;15.90;100091.00;;;;4815702;29;20071;-79
2022/02/19 06:15:58;;;;;;;0.00;0.00;;;;;15.80;100083.00;;;;4815997;29;20435;-80
2022/02/19 06:18:38;;;;;;;0.00;0.00;;;;;15.80;100067.00;;;;4815705;29;20529;-80
2022/02/19 06:21:08;;;;;;;0.00;0.00;;;;;15.80;100082.00;;;;4815889;29;20062;-83
2022/02/19 06:23:40;;;;;;;0.00;0.00;;;;;15.80;100070.00;;;;4801929;29;20169;-81
2022/02/19 06:26:10;;;;;;;0.00;0.00;;;;;15.70;100067.00;;;;4802391;29;20051;-79
2022/02/19 06:29:13;;;;;;;0.00;0.00;;;;;15.70;100066.00;;;;4815515;29;20438;-80
2022/02/19 06:31:48;;;;;;;0.00;0.00;;;;;15.80;100075.00;;;;4815518;29;20054;-80
2022/02/19 06:34:18;;;;;;;0.00;0.00;;;;;15.70;100069.00;;;;4799990;29;20050;-80
2022/02/19 06:36:48;;;;;;;0.00;0.00;;;;;15.60;100087.00;;;;4814870;29;20067;-80
2022/02/19 06:39:24;;;;;;;0.00;0.00;;;;;15.60;100079.00;;;;4799887;29;20142;-80
2022/02/19 06:41:54;;;;;;;0.00;0.00;;;;;15.70;100089.00;;;;4815410;29;20146;-79
2022/02/19 06:44:32;;;;;;;0.00;0.00;;;;;15.70;100079.00;;;;4814322;29;20063;-80
2022/02/19 06:47:02;;;;;;;0.00;0.00;;;;;15.70;100083.00;;;;4815158;29;20177;-81
2022/02/19 06:49:31;;;;;;;0.00;0.00;;;;;15.70;100086.00;;;;4814958;29;20527;-80
2022/02/19 06:52:01;;;;;;;0.00;0.00;;;;;15.60;100101.00;;;;4815134;29;20062;-81
2022/02/19 06:54:34;;;;;;;0.00;0.00;;;;;15.60;100083.00;;;;4814832;29;20051;-79
2022/02/19 06:57:04;;;;;;;0.00;0.00;;;;;15.60;100087.00;;;;4799752;29;20400;-81
2022/02/19 06:59:33;;;;;;;0.00;0.00;;;;;15.60;100083.00;;;;4814891;29;20058;-79
2022/02/19 07:02:03;;;;;;;0.00;0.00;;;;;15.60;100099.00;;;;4814486;29;20051;-79
2022/02/19 07:04:33;;;;;;;0.00;0.00;;;;;15.50;100085.00;;;;4815017;29;20078;-79
2022/02/19 07:07:20;;;;;;;0.00;0.00;;;;;15.50;100099.00;;;;4801112;29;20065;-79
2022/02/19 07:09:50;;;;;;;0.38;0.15;;;;;15.50;100076.00;;;;4800915;29;20138;-80
2022/02/19 07:12:19;;;;;;;0.00;0.00;;;;;15.60;100088.00;;;;4800605;29;20055;-81
2022/02/19 07:14:51;;;;;;;0.00;0.00;;;;;15.50;100069.00;;;;4814750;29;20051;-81
2022/02/19 07:17:51;;;;;;;0.00;0.00;;;;;15.50;100089.00;;;;4801699;29;20058;-79
2022/02/19 07:20:23;;;;;;;0.00;0.00;;;;;15.30;100061.00;;;;4814736;29;20054;-80
2022/02/19 07:22:53;;;;;;;0.00;0.00;;;;;15.40;100076.00;;;;4814692;29;20554;-80
2022/02/19 07:25:24;;;;;;;0.00;0.00;;;;;15.40;100067.00;;;;4814698;29;20047;-80
2022/02/19 07:27:53;;;;;;;0.00;0.00;;;;;15.50;100059.00;;;;4813949;29;20428;-79
2022/02/19 07:30:23;;;;;;;0.00;0.00;;;;;15.60;100066.00;;;;4813970;29;20058;-80
2022/02/19 07:32:52;;;;;;;0.00;0.00;;;;;15.50;100077.00;;;;4814703;29;20149;-80
2022/02/19 07:35:40;;;;;;;0.00;0.00;;;;;15.50;100070.00;;;;4813653;29;20055;-80
2022/02/19 07:38:10;;;;;;;0.00;0.00;;;;;15.40;100078.00;;;;4819053;29;20058;-79
2022/02/19 07:40:40;;;;;;;0.00;0.00;;;;;15.30;100081.00;;;;4834739;29;20047;-79
2022/02/19 07:43:10;;;;;;;0.00;0.00;;;;;15.30;100078.00;;;;4804620;29;20058;-80
2022/02/19 07:46:02;;;;;;;0.00;0.00;;;;;15.40;100096.00;;;;4799922;29;20054;-81
2022/02/19 07:48:50;;;;;;;0.00;0.00;;;;;15.40;100096.00;;;;4799642;29;20090;-81
2022/02/19 08:00:19;;;;;;;0.00;0.00;;;;;15.10;100081.00;;;;4813460;29;20047;-79
2022/02/19 08:02:55;;;;;;;0.00;0.00;;;;;15.10;100083.00;;;;4814759;29;20503;-81
2022/02/19 08:05:24;;;;;;;0.00;0.00;;;;;15.10;100093.00;;;;4814351;29;20176;-80
2022/02/19 08:07:59;;;;;;;0.00;0.00;;;;;15.10;100107.00;;;;4814030;29;20058;-79
2022/02/19 08:10:30;;;;;;;0.00;0.00;;;;;15.20;100106.00;;;;4813591;29;20075;-80
2022/02/19 08:12:59;;;;;;;0.00;0.00;;;;;15.10;100100.00;;;;4799618;29;20507;-79
2022/02/19 08:15:28;;;;;;;0.00;0.00;;;;;15.10;100086.00;;;;4799924;29;20063;-80
2022/02/19 08:17:58;;;;;;;0.00;0.00;;;;;15.10;100099.00;;;;4799851;29;20082;-80
2022/02/19 08:20:27;;;;;;;0.00;0.00;;;;;15.10;100081.00;;;;4800167;29;20047;-80
2022/02/19 08:22:58;;;;;;;0.00;0.00;;;;;15.00;100080.00;;;;4800124;29;20058;-79
2022/02/19 08:25:28;;;;;;;0.00;0.00;;;;;15.00;100081.00;;;;4800345;29;20055;-80
2022/02/19 08:27:58;;;;;;;0.00;0.00;;;;;15.00;100085.00;;;;4800180;29;20043;-79
2022/02/19 08:30:28;;;;;;;0.00;0.00;;;;;15.00;100103.00;;;;4800004;29;20760;-79
2022/02/19 08:32:57;;;;;;;0.00;0.00;;;;;15.00;100102.00;;;;4798567;29;20439;-80
2022/02/19 08:35:27;;;;;;;0.00;0.00;;;;;15.00;100114.00;;;;4799663;29;20051;-79
2022/02/19 08:37:56;;;;;;;0.00;0.00;;;;;14.90;100098.00;;;;4800176;29;20169;-79
2022/02/19 08:40:26;;;;;;;0.00;0.00;;;;;15.00;100104.00;;;;4799563;29;20499;-79
2022/02/19 08:42:56;;;;;;;0.00;0.00;;;;;15.00;100105.00;;;;4800254;29;20470;-80
2022/02/19 08:45:25;;;;;;;0.00;0.00;;;;;15.00;100103.00;;;;4799636;29;20058;-80
2022/02/19 08:48:01;;;;;;;0.00;0.00;;;;;15.00;100114.00;;;;4798436;29;20074;-79
2022/02/19 08:50:34;;;;;;;0.00;0.00;;;;;14.90;100104.00;;;;4799673;29;20047;-81
2022/02/19 08:53:13;;;;;;;0.00;0.00;;;;;14.90;100120.00;;;;4799348;29;20584;-79
2022/02/19 08:55:42;;;;;;;0.00;0.00;;;;;14.90;100124.00;;;;4799330;29;20067;-79
2022/02/19 08:58:17;;;;;;;0.00;0.00;;;;;15.00;100110.00;;;;4799622;29;20457;-79
2022/02/19 09:00:47;;;;;;;0.00;0.00;;;;;15.00;100119.00;;;;4800297;29;20054;-80
2022/02/19 09:03:16;;;;;;;0.00;0.00;;;;;15.00;100121.00;;;;4803087;29;20083;-79
2022/02/19 09:05:46;;;;;;;0.00;0.00;;;;;14.90;100113.00;;;;4802907;29;20530;-79
2022/02/19 09:08:15;;;;;;;0.00;0.00;;;;;14.90;100121.00;;;;4802511;29;20059;-80
2022/02/19 09:10:45;;;;;;;0.00;0.00;;;;;14.90;100124.00;;;;4803068;29;20105;-79
2022/02/19 09:13:14;;;;;;;0.00;0.00;;;;;14.90;100122.00;;;;4803020;29;20502;-80
2022/02/19 09:15:45;;;;;;;0.00;0.00;;;;;14.90;100143.00;;;;4802890;29;20457;-79
2022/02/19 09:18:15;;;;;;;0.00;0.00;;;;;14.90;100139.00;;;;4802841;29;20406;-81
2022/02/19 09:20:45;;;;;;;0.00;0.00;;;;;14.80;100130.00;;;;4802423;29;20047;-80
2022/02/19 09:23:14;;;;;;;0.00;0.00;;;;;14.80;100139.00;;;;4802331;29;20107;-79
2022/02/19 09:25:43;;;;;;;0.00;0.00;;;;;14.90;100134.00;;;;4802699;29;20074;-80
2022/02/19 09:28:13;;;;;;;0.00;0.00;;;;;15.00;100142.00;;;;4802483;29;20061;-79
2022/02/19 09:30:42;;;;;;;0.00;0.00;;;;;15.10;100141.00;;;;4802860;29;20055;-80
2022/02/19 09:33:12;;;;;;;0.00;0.00;;;;;15.10;100143.00;;;;4802706;29;20392;-80
2022/02/19 09:35:41;;;;;;;0.00;0.00;;;;;15.20;100133.00;;;;4803100;29;20469;-79
2022/02/19 09:38:10;;;;;;;0.00;0.00;;;;;15.20;100156.00;;;;4802696;29;20067;-80
2022/02/19 09:40:41;;;;;;;0.00;0.00;;;;;15.20;100168.00;;;;4802110;29;20100;-79
2022/02/19 09:43:11;;;;;;;0.00;0.00;;;;;15.30;100155.00;;;;4802361;29;20835;-80
2022/02/19 09:45:41;;;;;;;0.00;0.00;;;;;15.40;100164.00;;;;4802293;29;20057;-79
2022/02/19 09:48:12;;;;;;;0.00;0.00;;;;;15.50;100154.00;;;;4802272;29;20062;-80
2022/02/19 09:50:43;;;;;;;0.00;0.00;;;;;15.60;100173.00;;;;4802286;29;20084;-79
2022/02/19 09:53:14;;;;;;;0.00;0.00;;;;;15.60;100166.00;;;;4802455;29;20125;-80
2022/02/19 09:55:44;;;;;;;0.00;0.00;;;;;15.70;100166.00;;;;4802520;29;20057;-80
2022/02/19 09:58:13;;;;;;;0.00;0.00;;;;;15.90;100169.00;;;;4800603;29;20553;-80
2022/02/19 10:00:47;;;;;;;0.00;0.00;;;;;16.00;100158.00;;;;4802309;29;20437;-79
2022/02/19 10:03:24;;;;;;;0.00;0.00;;;;;16.20;100164.00;;;;4801864;29;20074;-79
2022/02/19 10:05:57;;;;;;;0.00;0.00;;;;;16.30;100163.00;;;;4802265;29;20929;-79
2022/02/19 10:08:27;;;;;;;0.00;0.00;;;;;16.50;100162.00;;;;4801647;29;20126;-79
2022/02/19 10:10:56;;;;;;;0.00;0.00;;;;;16.60;100163.00;;;;4815747;29;20059;-79
2022/02/19 10:13:38;;;;;;;0.00;0.00;;;;;16.90;100182.00;;;;4801574;29;20057;-79
2022/02/19 10:16:09;;;;;;;;;;;;;17.60;100130.00;;;;4802675;29;20556;-79
2022/02/19 10:18:43;;;;;;;0.00;0.00;;;;;19.30;100104.00;;;;4801640;29;19929;-78
2022/02/19 10:21:24;;;;;;;0.00;0.00;;;;;22.10;99964.00;;;;4801535;29;20049;-80
2022/02/19 10:23:58;;;;;;;0.00;0.00;;;;;25.60;99943.00;;;;4801844;29;20192;-81
2022/02/19 10:26:34;;;;;;;0.00;0.00;;;;;27.60;99935.00;;;;4801895;29;20494;-79
2022/02/19 10:29:07;;;;;;;0.00;0.00;;;;;28.80;99933.00;;;;4820163;29;20039;-80
2022/02/19 10:31:37;;;;;;;0.00;0.00;;;;;29.00;99943.00;;;;4811031;29;20050;-80
2022/02/19 10:34:14;;;;;;;0.00;0.00;;;;;29.60;99942.00;;;;4801042;29;20046;-80
2022/02/19 10:36:49;;;;;;;0.00;0.00;;;;;30.00;99927.00;;;;4801191;29;20058;-80
2022/02/19 10:39:30;;;;;;;0.90;0.65;;;;;30.30;99943.00;;;;4801438;29;20141;-81
2022/02/19 10:42:05;;;;;;;0.00;0.00;;;;;31.00;99961.00;;;;4801461;29;20043;-81
2022/02/19 10:44:36;;;;;;;0.00;0.00;;;;;31.10;99960.00;;;;4800803;29;20151;-80
2022/02/19 10:47:32;;;;;;;0.00;0.00;;;;;31.40;99968.00;;;;4801679;29;20055;-81
2022/02/19 10:50:11;;;;;;;0.00;0.00;;;;;31.50;99966.00;;;;4801163;29;20062;-81
2022/02/19 10:52:56;;;;;;;0.35;0.20;;;;;31.40;99968.00;;;;4801149;29;20449;-81
2022/02/19 10:55:30;;;;;;;0.65;0.65;;;;;31.50;99976.00;;;;4800609;29;20077;-80
2022/02/19 10:58:04;;;;;;;0.00;0.00;;;;;32.00;99971.00;;;;4801864;29;20051;-80
2022/02/19 11:00:36;;;;;;;0.00;0.00;;;;;32.60;99977.00;;;;4799229;29;20050;-79
2022/02/19 11:03:11;;;;;;;0.00;0.00;;;;;32.80;99976.00;;;;4800547;29;20063;-81
2022/02/19 11:05:41;;;;;;;0.20;0.20;;;;;32.20;99965.00;;;;4801700;29;20082;-79
2022/02/19 11:08:11;;;;;;;0.00;0.00;;;;;32.60;99963.00;;;;4799343;29;20416;-79
2022/02/19 11:10:40;;;;;;;0.00;0.00;;;;;32.70;99957.00;;;;4800165;29;20059;-80
2022/02/19 11:13:10;;;;;;;0.00;0.00;;;;;32.40;99956.00;;;;4800629;29;20529;-80
2022/02/19 11:15:40;;;;;;;0.00;0.00;;;;;32.80;99935.00;;;;4799117;29;20070;-80
2022/02/19 11:18:10;;;;;;;0.00;0.00;;;;;33.50;99944.00;;;;4801598;29;20054;-78
2022/02/19 11:20:40;;;;;;;0.00;0.00;;;;;34.20;99936.00;;;;4800884;29;20059;-79
2022/02/19 11:23:11;;;;;;;0.00;0.00;;;;;33.40;99939.00;;;;4799768;29;20288;-79
2022/02/19 11:25:41;;;;;;;0.03;0.03;;;;;33.10;99919.00;;;;4814173;29;20054;-78
2022/02/19 11:28:13;;;;;;;0.00;0.00;;;;;33.80;99927.00;;;;4801005;29;20058;-77
2022/02/19 11:30:54;;;;;;;0.00;0.00;;;;;33.30;99951.00;;;;4800036;29;20051;-78
2022/02/19 11:33:24;;;;;;;;;;;;;33.80;99934.00;;;;4814824;29;20058;-79
2022/02/19 11:35:59;;;;;;;0.00;0.00;;;;;34.40;99941.00;;;;4799654;29;20312;-79
2022/02/19 11:38:32;;;;;;;0.00;0.00;;;;;34.80;99938.00;;;;4800575;29;20552;-80
2022/02/19 11:41:04;;;;;;;0.00;0.00;;;;;34.80;99942.00;;;;4799979;29;20042;-77
2022/02/19 11:43:47;;;;;;;0.00;0.00;;;;;34.90;99944.00;;;;4799532;29;20062;-78
2022/02/19 11:46:17;;;;;;;0.63;0.63;;;;;35.20;99945.00;;;;4800242;29;20125;-79
2022/02/19 11:48:48;;;;;;;0.00;0.00;;;;;35.20;99945.00;;;;4800391;29;20050;-80
2022/02/19 11:51:29;;;;;;;0.00;0.00;;;;;34.10;99948.00;;;;4799991;29;20055;-80
2022/02/19 11:54:06;;;;;;;0.00;0.00;;;;;33.00;99945.00;;;;4800163;29;20050;-78
2022/02/19 11:56:41;;;;;;;0.00;0.00;;;;;32.50;99948.00;;;;4800005;29;20457;-78
2022/02/19 11:59:12;;;;;;;0.00;0.00;;;;;32.50;99973.00;;;;4799300;29;20415;-80
2022/02/19 12:01:45;;;;;;;0.00;0.00;;;;;32.50;99972.00;;;;4799816;29;20039;-79
2022/02/19 12:04:19;;;;;;;0.00;0.00;;;;;32.10;99993.00;;;;4799525;29;20066;-79
2022/02/19 12:07:07;;;;;;;0.00;0.00;;;;;32.50;100014.00;;;;4799595;29;20112;-80
2022/02/19 12:10:07;;;;;;;0.00;0.00;;;;;32.20;100026.00;;;;4798920;29;20151;-80
2022/02/19 12:13:06;;;;;;;0.00;0.00;;;;;32.00;100100.00;;;;4799301;29;20047;-78
2022/02/19 12:15:38;;;;;;;0.00;0.00;;;;;31.80;100095.00;;;;4799514;29;20411;-78
2022/02/19 12:18:09;;;;;;;0.00;0.00;;;;;31.60;100126.00;;;;4800448;29;20142;-79
2022/02/19 12:20:41;;;;;;;2.35;0.17;;;;;30.20;100133.00;;;;4799591;29;20086;-79
2022/02/19 12:23:12;;;;;;;0.00;0.00;;;;;29.30;100128.00;;;;4800227;29;20050;-79
2022/02/19 12:26:00;;;;;;;0.00;0.00;;;;;29.10;100133.00;;;;4800301;29;20104;-79
2022/02/19 12:28:36;;;;;;;0.00;0.00;;;;;29.10;100135.00;;;;4799441;29;20450;-79
2022/02/19 12:31:20;;;;;;;0.00;0.00;;;;;29.00;100124.00;;;;4799502;29;20054;-78
2022/02/19 12:33:52;;;;;;;0.00;0.00;;;;;29.70;100114.00;;;;4799006;29;20143;-77
2022/02/19 12:36:22;;;;;;;0.00;0.00;;;;;30.60;100124.00;;;;4802793;29;20051;-79
2022/02/19 12:38:54;;;;;;;0.00;0.00;;;;;29.90;100110.00;;;;4803239;29;20058;-80
2022/02/19 12:41:24;;;;;;;0.15;0.15;;;;;29.30;100121.00;;;;4803661;29;20078;-79
2022/02/19 12:44:05;;;;;;;0.00;0.00;;;;;29.50;100106.00;;;;4803820;29;20383;-78
2022/02/19 12:46:37;;;;;;;0.00;0.00;;;;;29.80;100096.00;;;;4802845;29;20434;-77
2022/02/19 12:49:08;;;;;;;0.00;0.00;;;;;29.80;100099.00;;;;4803328;29;20051;-79